sensor_id;sensor_type;location;lat;lon;timestamp;P1;durP1;ratioP1;P2;durP2;ratioP2
8044;SDS011;4065;48.754;9.982;2022-09-09T00:01:16;2.95;;;2.00;;
8044;SDS011;4065;48.754;9.982;2022-09-09T00:04:28;2.28;;;2.08;;
8044;SDS011;4065;48.754;9.982;2022-09-09T00:07:34;4.60;;;2.25;;
8044;SDS011;4065;48.754;9.982;2022-09-09T00:10:41;2.20;;;2.00;;
8044;SDS011;4065;48.754;9.982;2022-09-09T00:13:43;2.67;;;1.90;;
8044;SDS011;4065;48.754;9.982;2022-09-09T00:16:49;2.70;;;2.17;;
8044;SDS011;4065;48.754;9.982;2022-09-09T00:19:56;2.80;;;2.00;;
8044;SDS011;4065;48.754;9.982;2022-09-09T00:23:03;2.30;;;2.10;;
8044;SDS011;4065;48.754;9.982;2022-09-09T00:26:10;3.25;;;2.22;;
8044;SDS011;4065;48.754;9.982;2022-09-09T00:29:19;3.08;;;1.95;;
8044;SDS011;4065;48.754;9.982;2022-09-09T00:32:28;3.70;;;2.13;;
8044;SDS011;4065;48.754;9.982;2022-09-09T00:35:37;3.78;;;2.08;;
8044;SDS011;4065;48.754;9.982;2022-09-09T00:38:44;3.47;;;2.22;;
8044;SDS011;4065;48.754;9.982;2022-09-09T00:41:50;4.55;;;2.30;;
8044;SDS011;4065;48.754;9.982;2022-09-09T00:45:12;5.15;;;2.22;;
8044;SDS011;4065;48.754;9.982;2022-09-09T00:48:35;3.47;;;2.42;;
8044;SDS011;4065;48.754;9.982;2022-09-09T00:51:46;2.78;;;2.00;;
8044;SDS011;4065;48.754;9.982;2022-09-09T00:54:53;6.03;;;2.58;;
8044;SDS011;4065;48.754;9.982;2022-09-09T00:58:00;3.42;;;2.00;;
8044;SDS011;4065;48.754;9.982;2022-09-09T01:01:07;6.88;;;2.63;;
8044;SDS011;4065;48.754;9.982;2022-09-09T01:04:13;5.55;;;2.40;;
8044;SDS011;4065;48.754;9.982;2022-09-09T01:07:27;4.03;;;2.13;;
8044;SDS011;4065;48.754;9.982;2022-09-09T01:10:35;3.45;;;2.30;;
8044;SDS011;4065;48.754;9.982;2022-09-09T01:13:42;3.65;;;2.22;;
8044;SDS011;4065;48.754;9.982;2022-09-09T01:16:48;4.28;;;2.20;;
8044;SDS011;4065;48.754;9.982;2022-09-09T01:19:55;3.08;;;2.00;;
8044;SDS011;4065;48.754;9.982;2022-09-09T01:26:36;2.53;;;2.05;;
8044;SDS011;4065;48.754;9.982;2022-09-09T01:29:39;3.70;;;2.08;;
8044;SDS011;4065;48.754;9.982;2022-09-09T01:32:41;4.20;;;2.72;;
8044;SDS011;4065;48.754;9.982;2022-09-09T01:35:45;3.38;;;2.30;;
8044;SDS011;4065;48.754;9.982;2022-09-09T01:38:51;3.53;;;2.15;;
8044;SDS011;4065;48.754;9.982;2022-09-09T01:41:54;2.33;;;2.20;;
8044;SDS011;4065;48.754;9.982;2022-09-09T01:44:56;4.20;;;2.40;;
8044;SDS011;4065;48.754;9.982;2022-09-09T01:47:58;3.92;;;2.13;;
8044;SDS011;4065;48.754;9.982;2022-09-09T01:51:00;2.88;;;2.00;;
8044;SDS011;4065;48.754;9.982;2022-09-09T01:54:02;3.60;;;2.03;;
8044;SDS011;4065;48.754;9.982;2022-09-09T01:57:06;3.92;;;2.05;;
8044;SDS011;4065;48.754;9.982;2022-09-09T02:00:11;3.70;;;2.50;;
8044;SDS011;4065;48.754;9.982;2022-09-09T02:03:16;3.38;;;2.35;;
8044;SDS011;4065;48.754;9.982;2022-09-09T02:06:25;5.28;;;2.40;;
8044;SDS011;4065;48.754;9.982;2022-09-09T02:09:29;3.30;;;2.25;;
8044;SDS011;4065;48.754;9.982;2022-09-09T02:12:32;3.80;;;2.20;;
8044;SDS011;4065;48.754;9.982;2022-09-09T02:15:34;3.78;;;2.58;;
8044;SDS011;4065;48.754;9.982;2022-09-09T02:18:40;4.90;;;2.35;;
8044;SDS011;4065;48.754;9.982;2022-09-09T02:21:45;8.73;;;2.92;;
8044;SDS011;4065;48.754;9.982;2022-09-09T02:24:48;6.20;;;2.70;;
8044;SDS011;4065;48.754;9.982;2022-09-09T02:27:52;2.50;;;2.30;;
8044;SDS011;4065;48.754;9.982;2022-09-09T02:30:54;3.33;;;2.08;;
8044;SDS011;4065;48.754;9.982;2022-09-09T02:33:56;5.38;;;2.50;;
8044;SDS011;4065;48.754;9.982;2022-09-09T02:37:01;2.35;;;2.15;;
8044;SDS011;4065;48.754;9.982;2022-09-09T02:40:05;5.50;;;2.40;;
8044;SDS011;4065;48.754;9.982;2022-09-09T02:43:09;2.90;;;2.60;;
8044;SDS011;4065;48.754;9.982;2022-09-09T02:46:17;4.35;;;2.10;;
8044;SDS011;4065;48.754;9.982;2022-09-09T02:49:32;2.42;;;2.03;;
8044;SDS011;4065;48.754;9.982;2022-09-09T02:52:53;2.88;;;2.05;;
8044;SDS011;4065;48.754;9.982;2022-09-09T02:56:05;2.03;;;1.88;;
8044;SDS011;4065;48.754;9.982;2022-09-09T02:59:15;2.53;;;2.10;;
8044;SDS011;4065;48.754;9.982;2022-09-09T03:02:16;3.00;;;1.90;;
8044;SDS011;4065;48.754;9.982;2022-09-09T03:05:18;3.13;;;2.22;;
8044;SDS011;4065;48.754;9.982;2022-09-09T03:08:20;2.38;;;2.00;;
8044;SDS011;4065;48.754;9.982;2022-09-09T03:11:22;3.97;;;2.05;;
8044;SDS011;4065;48.754;9.982;2022-09-09T03:14:25;2.85;;;2.35;;
8044;SDS011;4065;48.754;9.982;2022-09-09T03:17:27;5.43;;;2.13;;
8044;SDS011;4065;48.754;9.982;2022-09-09T03:20:29;2.85;;;2.10;;
8044;SDS011;4065;48.754;9.982;2022-09-09T03:23:31;2.22;;;2.03;;
8044;SDS011;4065;48.754;9.982;2022-09-09T03:26:33;5.57;;;2.08;;
8044;SDS011;4065;48.754;9.982;2022-09-09T03:29:36;2.20;;;2.08;;
8044;SDS011;4065;48.754;9.982;2022-09-09T03:32:38;3.85;;;2.05;;
8044;SDS011;4065;48.754;9.982;2022-09-09T03:35:44;2.45;;;2.25;;
8044;SDS011;4065;48.754;9.982;2022-09-09T03:38:48;6.80;;;2.75;;
8044;SDS011;4065;48.754;9.982;2022-09-09T03:41:50;3.50;;;2.00;;
8044;SDS011;4065;48.754;9.982;2022-09-09T03:44:53;5.18;;;2.03;;
8044;SDS011;4065;48.754;9.982;2022-09-09T03:47:57;2.75;;;2.00;;
8044;SDS011;4065;48.754;9.982;2022-09-09T03:51:00;4.75;;;2.20;;
8044;SDS011;4065;48.754;9.982;2022-09-09T03:54:03;2.20;;;1.98;;
8044;SDS011;4065;48.754;9.982;2022-09-09T03:57:05;4.60;;;2.10;;
8044;SDS011;4065;48.754;9.982;2022-09-09T04:00:08;2.50;;;2.00;;
8044;SDS011;4065;48.754;9.982;2022-09-09T04:03:10;2.58;;;2.00;;
8044;SDS011;4065;48.754;9.982;2022-09-09T04:06:12;3.20;;;2.08;;
8044;SDS011;4065;48.754;9.982;2022-09-09T04:09:15;2.80;;;2.55;;
8044;SDS011;4065;48.754;9.982;2022-09-09T04:12:16;6.15;;;2.53;;
8044;SDS011;4065;48.754;9.982;2022-09-09T04:15:21;8.05;;;2.15;;
8044;SDS011;4065;48.754;9.982;2022-09-09T04:18:23;6.22;;;2.17;;
8044;SDS011;4065;48.754;9.982;2022-09-09T04:21:26;5.50;;;2.10;;
8044;SDS011;4065;48.754;9.982;2022-09-09T04:24:27;2.35;;;2.03;;
8044;SDS011;4065;48.754;9.982;2022-09-09T04:27:29;2.30;;;2.10;;
8044;SDS011;4065;48.754;9.982;2022-09-09T04:30:33;2.50;;;2.30;;
8044;SDS011;4065;48.754;9.982;2022-09-09T04:33:35;4.38;;;2.20;;
8044;SDS011;4065;48.754;9.982;2022-09-09T04:36:38;2.75;;;2.28;;
8044;SDS011;4065;48.754;9.982;2022-09-09T04:39:40;3.63;;;2.22;;
8044;SDS011;4065;48.754;9.982;2022-09-09T04:42:41;7.72;;;2.50;;
8044;SDS011;4065;48.754;9.982;2022-09-09T04:45:46;3.92;;;2.40;;
8044;SDS011;4065;48.754;9.982;2022-09-09T04:48:48;5.35;;;2.20;;
8044;SDS011;4065;48.754;9.982;2022-09-09T04:51:51;4.68;;;2.20;;
8044;SDS011;4065;48.754;9.982;2022-09-09T04:54:53;5.63;;;2.20;;
8044;SDS011;4065;48.754;9.982;2022-09-09T04:57:57;5.90;;;2.35;;
8044;SDS011;4065;48.754;9.982;2022-09-09T05:01:06;4.13;;;2.40;;
8044;SDS011;4065;48.754;9.982;2022-09-09T05:04:08;4.97;;;2.28;;
8044;SDS011;4065;48.754;9.982;2022-09-09T05:07:13;4.55;;;2.22;;
8044;SDS011;4065;48.754;9.982;2022-09-09T05:10:15;5.30;;;2.50;;
8044;SDS011;4065;48.754;9.982;2022-09-09T05:13:18;4.55;;;2.33;;
8044;SDS011;4065;48.754;9.982;2022-09-09T05:16:21;2.47;;;2.17;;
8044;SDS011;4065;48.754;9.982;2022-09-09T05:19:23;3.65;;;2.10;;
8044;SDS011;4065;48.754;9.982;2022-09-09T05:22:25;3.40;;;2.20;;
8044;SDS011;4065;48.754;9.982;2022-09-09T05:25:27;2.53;;;2.30;;
8044;SDS011;4065;48.754;9.982;2022-09-09T05:28:30;3.75;;;2.50;;
8044;SDS011;4065;48.754;9.982;2022-09-09T05:31:33;4.22;;;2.25;;
8044;SDS011;4065;48.754;9.982;2022-09-09T05:34:35;2.45;;;2.15;;
8044;SDS011;4065;48.754;9.982;2022-09-09T05:37:37;4.35;;;2.22;;
8044;SDS011;4065;48.754;9.982;2022-09-09T05:40:42;2.95;;;2.40;;
8044;SDS011;4065;48.754;9.982;2022-09-09T05:43:50;4.07;;;2.13;;
8044;SDS011;4065;48.754;9.982;2022-09-09T05:46:53;3.65;;;2.63;;
8044;SDS011;4065;48.754;9.982;2022-09-09T05:49:57;5.13;;;2.70;;
8044;SDS011;4065;48.754;9.982;2022-09-09T05:53:02;6.57;;;2.90;;
8044;SDS011;4065;48.754;9.982;2022-09-09T05:56:04;4.07;;;2.45;;
8044;SDS011;4065;48.754;9.982;2022-09-09T05:59:06;3.80;;;1.98;;
8044;SDS011;4065;48.754;9.982;2022-09-09T06:02:10;6.05;;;2.53;;
8044;SDS011;4065;48.754;9.982;2022-09-09T06:05:12;5.25;;;2.42;;
8044;SDS011;4065;48.754;9.982;2022-09-09T06:08:16;2.80;;;2.15;;
8044;SDS011;4065;48.754;9.982;2022-09-09T06:11:18;5.10;;;2.30;;
8044;SDS011;4065;48.754;9.982;2022-09-09T06:14:21;5.78;;;2.53;;
8044;SDS011;4065;48.754;9.982;2022-09-09T06:17:34;4.20;;;2.13;;
8044;SDS011;4065;48.754;9.982;2022-09-09T06:20:39;4.32;;;2.30;;
8044;SDS011;4065;48.754;9.982;2022-09-09T06:23:47;4.18;;;2.35;;
8044;SDS011;4065;48.754;9.982;2022-09-09T06:27:06;4.20;;;2.20;;
8044;SDS011;4065;48.754;9.982;2022-09-09T06:30:16;2.50;;;2.10;;
8044;SDS011;4065;48.754;9.982;2022-09-09T06:33:23;6.25;;;2.38;;
8044;SDS011;4065;48.754;9.982;2022-09-09T06:36:31;3.75;;;1.95;;
8044;SDS011;4065;48.754;9.982;2022-09-09T06:39:41;3.25;;;1.75;;
8044;SDS011;4065;48.754;9.982;2022-09-09T06:42:43;3.85;;;2.05;;
8044;SDS011;4065;48.754;9.982;2022-09-09T06:45:55;6.88;;;2.55;;
8044;SDS011;4065;48.754;9.982;2022-09-09T06:48:59;6.57;;;2.47;;
8044;SDS011;4065;48.754;9.982;2022-09-09T06:52:01;4.05;;;1.98;;
8044;SDS011;4065;48.754;9.982;2022-09-09T06:55:03;2.97;;;1.90;;
8044;SDS011;4065;48.754;9.982;2022-09-09T06:58:07;5.38;;;2.50;;
8044;SDS011;4065;48.754;9.982;2022-09-09T07:01:11;4.95;;;2.38;;
8044;SDS011;4065;48.754;9.982;2022-09-09T07:04:15;5.32;;;2.20;;
8044;SDS011;4065;48.754;9.982;2022-09-09T07:07:17;2.80;;;1.92;;
8044;SDS011;4065;48.754;9.982;2022-09-09T07:10:19;2.20;;;2.00;;
8044;SDS011;4065;48.754;9.982;2022-09-09T07:13:23;28.70;;;4.75;;
8044;SDS011;4065;48.754;9.982;2022-09-09T07:16:26;31.60;;;5.22;;
8044;SDS011;4065;48.754;9.982;2022-09-09T07:19:30;10.82;;;2.70;;
8044;SDS011;4065;48.754;9.982;2022-09-09T07:22:32;3.05;;;1.70;;
8044;SDS011;4065;48.754;9.982;2022-09-09T07:25:34;4.47;;;2.10;;
8044;SDS011;4065;48.754;9.982;2022-09-09T07:28:36;61.63;;;7.95;;
8044;SDS011;4065;48.754;9.982;2022-09-09T07:31:39;7.60;;;2.60;;
8044;SDS011;4065;48.754;9.982;2022-09-09T07:34:43;5.22;;;1.90;;
8044;SDS011;4065;48.754;9.982;2022-09-09T07:37:46;4.57;;;1.90;;
8044;SDS011;4065;48.754;9.982;2022-09-09T07:40:47;4.55;;;1.90;;
8044;SDS011;4065;48.754;9.982;2022-09-09T07:43:49;4.25;;;2.05;;
8044;SDS011;4065;48.754;9.982;2022-09-09T07:46:51;2.20;;;1.67;;
8044;SDS011;4065;48.754;9.982;2022-09-09T07:49:54;7.45;;;2.00;;
8044;SDS011;4065;48.754;9.982;2022-09-09T07:52:55;4.20;;;1.80;;
8044;SDS011;4065;48.754;9.982;2022-09-09T07:56:01;2.92;;;1.70;;
8044;SDS011;4065;48.754;9.982;2022-09-09T07:59:06;2.85;;;1.70;;
8044;SDS011;4065;48.754;9.982;2022-09-09T08:02:09;6.78;;;1.95;;
8044;SDS011;4065;48.754;9.982;2022-09-09T08:05:12;4.63;;;1.95;;
8044;SDS011;4065;48.754;9.982;2022-09-09T08:08:15;2.30;;;1.48;;
8044;SDS011;4065;48.754;9.982;2022-09-09T08:11:16;4.25;;;1.90;;
8044;SDS011;4065;48.754;9.982;2022-09-09T08:14:18;2.75;;;1.80;;
8044;SDS011;4065;48.754;9.982;2022-09-09T08:17:20;3.03;;;1.88;;
8044;SDS011;4065;48.754;9.982;2022-09-09T08:20:36;2.35;;;1.83;;
8044;SDS011;4065;48.754;9.982;2022-09-09T08:23:39;3.33;;;2.03;;
8044;SDS011;4065;48.754;9.982;2022-09-09T08:26:41;2.92;;;1.80;;
8044;SDS011;4065;48.754;9.982;2022-09-09T08:29:44;2.80;;;1.73;;
8044;SDS011;4065;48.754;9.982;2022-09-09T08:32:46;3.85;;;2.00;;
8044;SDS011;4065;48.754;9.982;2022-09-09T08:35:52;2.80;;;1.52;;
8044;SDS011;4065;48.754;9.982;2022-09-09T08:38:54;2.83;;;1.90;;
8044;SDS011;4065;48.754;9.982;2022-09-09T08:42:01;5.97;;;1.83;;
8044;SDS011;4065;48.754;9.982;2022-09-09T08:45:14;4.93;;;1.80;;
8044;SDS011;4065;48.754;9.982;2022-09-09T08:48:26;3.70;;;1.80;;
8044;SDS011;4065;48.754;9.982;2022-09-09T08:51:39;3.75;;;1.77;;
8044;SDS011;4065;48.754;9.982;2022-09-09T08:54:42;4.70;;;1.98;;
8044;SDS011;4065;48.754;9.982;2022-09-09T08:57:43;1.80;;;1.50;;
8044;SDS011;4065;48.754;9.982;2022-09-09T09:01:00;3.83;;;1.67;;
8044;SDS011;4065;48.754;9.982;2022-09-09T09:04:14;4.47;;;1.80;;
8044;SDS011;4065;48.754;9.982;2022-09-09T09:07:33;3.90;;;1.92;;
8044;SDS011;4065;48.754;9.982;2022-09-09T09:10:44;6.53;;;1.90;;
8044;SDS011;4065;48.754;9.982;2022-09-09T09:13:48;3.75;;;1.80;;
8044;SDS011;4065;48.754;9.982;2022-09-09T09:16:54;3.08;;;1.60;;
8044;SDS011;4065;48.754;9.982;2022-09-09T09:19:58;2.80;;;1.45;;
8044;SDS011;4065;48.754;9.982;2022-09-09T09:23:03;2.30;;;1.60;;
8044;SDS011;4065;48.754;9.982;2022-09-09T09:26:07;4.35;;;1.73;;
8044;SDS011;4065;48.754;9.982;2022-09-09T09:29:13;5.30;;;1.90;;
8044;SDS011;4065;48.754;9.982;2022-09-09T09:32:17;5.65;;;1.70;;
8044;SDS011;4065;48.754;9.982;2022-09-09T09:35:20;7.10;;;2.00;;
8044;SDS011;4065;48.754;9.982;2022-09-09T09:38:24;5.22;;;2.05;;
8044;SDS011;4065;48.754;9.982;2022-09-09T09:41:32;3.13;;;1.63;;
8044;SDS011;4065;48.754;9.982;2022-09-09T09:44:36;5.60;;;1.80;;
8044;SDS011;4065;48.754;9.982;2022-09-09T09:47:38;4.43;;;1.92;;
8044;SDS011;4065;48.754;9.982;2022-09-09T09:50:46;5.53;;;1.73;;
8044;SDS011;4065;48.754;9.982;2022-09-09T09:53:50;2.67;;;1.75;;
8044;SDS011;4065;48.754;9.982;2022-09-09T09:56:53;4.72;;;1.75;;
8044;SDS011;4065;48.754;9.982;2022-09-09T10:00:02;4.07;;;1.67;;
8044;SDS011;4065;48.754;9.982;2022-09-09T10:03:14;3.15;;;1.65;;
8044;SDS011;4065;48.754;9.982;2022-09-09T10:06:30;4.38;;;1.77;;
8044;SDS011;4065;48.754;9.982;2022-09-09T10:09:33;4.97;;;1.80;;
8044;SDS011;4065;48.754;9.982;2022-09-09T10:12:38;4.45;;;1.63;;
8044;SDS011;4065;48.754;9.982;2022-09-09T10:15:48;4.03;;;1.73;;
8044;SDS011;4065;48.754;9.982;2022-09-09T10:18:58;3.55;;;1.45;;
8044;SDS011;4065;48.754;9.982;2022-09-09T10:22:13;3.17;;;1.40;;
8044;SDS011;4065;48.754;9.982;2022-09-09T10:25:33;3.40;;;1.70;;
8044;SDS011;4065;48.754;9.982;2022-09-09T10:28:45;3.58;;;1.50;;
8044;SDS011;4065;48.754;9.982;2022-09-09T10:31:59;1.98;;;1.30;;
8044;SDS011;4065;48.754;9.982;2022-09-09T10:35:12;3.22;;;1.65;;
8044;SDS011;4065;48.754;9.982;2022-09-09T10:38:16;3.63;;;1.60;;
8044;SDS011;4065;48.754;9.982;2022-09-09T10:41:21;2.25;;;1.48;;
8044;SDS011;4065;48.754;9.982;2022-09-09T10:44:34;7.57;;;1.65;;
8044;SDS011;4065;48.754;9.982;2022-09-09T10:47:47;5.00;;;1.65;;
8044;SDS011;4065;48.754;9.982;2022-09-09T10:50:57;3.22;;;1.58;;
8044;SDS011;4065;48.754;9.982;2022-09-09T10:54:08;3.28;;;1.40;;
8044;SDS011;4065;48.754;9.982;2022-09-09T10:57:22;5.15;;;1.88;;
8044;SDS011;4065;48.754;9.982;2022-09-09T11:00:30;3.78;;;1.50;;
8044;SDS011;4065;48.754;9.982;2022-09-09T11:03:38;3.95;;;1.70;;
8044;SDS011;4065;48.754;9.982;2022-09-09T11:06:46;4.03;;;1.50;;
8044;SDS011;4065;48.754;9.982;2022-09-09T11:09:53;4.53;;;1.48;;
8044;SDS011;4065;48.754;9.982;2022-09-09T11:13:01;3.08;;;1.50;;
8044;SDS011;4065;48.754;9.982;2022-09-09T11:16:08;2.63;;;1.30;;
8044;SDS011;4065;48.754;9.982;2022-09-09T11:19:18;5.53;;;1.50;;
8044;SDS011;4065;48.754;9.982;2022-09-09T11:22:23;3.70;;;1.33;;
8044;SDS011;4065;48.754;9.982;2022-09-09T11:25:33;2.42;;;1.27;;
8044;SDS011;4065;48.754;9.982;2022-09-09T11:28:41;3.20;;;1.60;;
8044;SDS011;4065;48.754;9.982;2022-09-09T11:31:53;3.47;;;1.35;;
8044;SDS011;4065;48.754;9.982;2022-09-09T11:35:03;2.67;;;1.40;;
8044;SDS011;4065;48.754;9.982;2022-09-09T11:38:21;3.15;;;1.55;;
8044;SDS011;4065;48.754;9.982;2022-09-09T11:41:32;2.85;;;1.38;;
8044;SDS011;4065;48.754;9.982;2022-09-09T11:44:36;3.35;;;1.40;;
8044;SDS011;4065;48.754;9.982;2022-09-09T11:47:41;2.97;;;1.40;;
8044;SDS011;4065;48.754;9.982;2022-09-09T11:50:59;3.20;;;1.30;;
8044;SDS011;4065;48.754;9.982;2022-09-09T11:54:24;2.38;;;1.23;;
8044;SDS011;4065;48.754;9.982;2022-09-09T11:57:32;3.75;;;1.30;;
8044;SDS011;4065;48.754;9.982;2022-09-09T12:00:37;3.55;;;1.38;;
8044;SDS011;4065;48.754;9.982;2022-09-09T12:03:43;3.15;;;1.60;;
8044;SDS011;4065;48.754;9.982;2022-09-09T12:06:48;4.88;;;1.25;;
8044;SDS011;4065;48.754;9.982;2022-09-09T12:09:52;2.67;;;1.27;;
8044;SDS011;4065;48.754;9.982;2022-09-09T12:13:07;2.42;;;1.23;;
8044;SDS011;4065;48.754;9.982;2022-09-09T12:19:35;2.65;;;1.05;;
8044;SDS011;4065;48.754;9.982;2022-09-09T12:22:38;1.60;;;0.98;;
8044;SDS011;4065;48.754;9.982;2022-09-09T12:25:48;4.05;;;1.13;;
8044;SDS011;4065;48.754;9.982;2022-09-09T12:28:59;2.08;;;1.20;;
8044;SDS011;4065;48.754;9.982;2022-09-09T12:32:07;1.42;;;1.17;;
8044;SDS011;4065;48.754;9.982;2022-09-09T12:35:16;2.20;;;1.10;;
8044;SDS011;4065;48.754;9.982;2022-09-09T12:38:23;1.80;;;1.20;;
8044;SDS011;4065;48.754;9.982;2022-09-09T12:41:28;5.03;;;1.30;;
8044;SDS011;4065;48.754;9.982;2022-09-09T12:44:30;3.25;;;1.40;;
8044;SDS011;4065;48.754;9.982;2022-09-09T12:47:36;3.05;;;1.30;;
8044;SDS011;4065;48.754;9.982;2022-09-09T12:50:43;4.00;;;1.38;;
8044;SDS011;4065;48.754;9.982;2022-09-09T12:53:46;4.10;;;1.40;;
8044;SDS011;4065;48.754;9.982;2022-09-09T12:56:47;2.40;;;1.52;;
8044;SDS011;4065;48.754;9.982;2022-09-09T12:59:51;3.03;;;1.30;;
8044;SDS011;4065;48.754;9.982;2022-09-09T13:02:55;3.45;;;1.60;;
8044;SDS011;4065;48.754;9.982;2022-09-09T13:05:59;2.13;;;1.30;;
8044;SDS011;4065;48.754;9.982;2022-09-09T13:09:12;2.15;;;1.20;;
8044;SDS011;4065;48.754;9.982;2022-09-09T13:12:14;3.47;;;1.33;;
8044;SDS011;4065;48.754;9.982;2022-09-09T13:15:19;4.10;;;1.35;;
8044;SDS011;4065;48.754;9.982;2022-09-09T13:18:24;3.22;;;1.30;;
8044;SDS011;4065;48.754;9.982;2022-09-09T13:21:32;2.30;;;1.17;;
8044;SDS011;4065;48.754;9.982;2022-09-09T13:24:35;3.72;;;1.30;;
8044;SDS011;4065;48.754;9.982;2022-09-09T13:27:37;2.78;;;1.23;;
8044;SDS011;4065;48.754;9.982;2022-09-09T13:30:40;2.63;;;1.10;;
8044;SDS011;4065;48.754;9.982;2022-09-09T13:33:45;3.75;;;1.40;;
8044;SDS011;4065;48.754;9.982;2022-09-09T13:36:47;1.92;;;0.98;;
8044;SDS011;4065;48.754;9.982;2022-09-09T13:39:51;3.22;;;1.33;;
8044;SDS011;4065;48.754;9.982;2022-09-09T13:42:54;6.03;;;1.30;;
8044;SDS011;4065;48.754;9.982;2022-09-09T13:46:00;3.83;;;1.40;;
8044;SDS011;4065;48.754;9.982;2022-09-09T13:49:18;2.20;;;1.05;;
8044;SDS011;4065;48.754;9.982;2022-09-09T13:52:21;2.88;;;1.35;;
8044;SDS011;4065;48.754;9.982;2022-09-09T13:55:23;1.67;;;1.00;;
8044;SDS011;4065;48.754;9.982;2022-09-09T13:58:26;2.92;;;1.02;;
8044;SDS011;4065;48.754;9.982;2022-09-09T14:01:28;2.70;;;1.30;;
8044;SDS011;4065;48.754;9.982;2022-09-09T14:04:36;3.05;;;1.42;;
8044;SDS011;4065;48.754;9.982;2022-09-09T14:07:38;2.00;;;1.20;;
8044;SDS011;4065;48.754;9.982;2022-09-09T14:10:41;3.42;;;1.45;;
8044;SDS011;4065;48.754;9.982;2022-09-09T14:13:46;2.40;;;1.10;;
8044;SDS011;4065;48.754;9.982;2022-09-09T14:16:49;3.55;;;1.40;;
8044;SDS011;4065;48.754;9.982;2022-09-09T14:19:54;2.60;;;1.17;;
8044;SDS011;4065;48.754;9.982;2022-09-09T14:22:57;5.38;;;1.30;;
8044;SDS011;4065;48.754;9.982;2022-09-09T14:25:58;2.25;;;1.15;;
8044;SDS011;4065;48.754;9.982;2022-09-09T14:29:00;1.88;;;1.05;;
8044;SDS011;4065;48.754;9.982;2022-09-09T14:32:02;1.77;;;0.93;;
8044;SDS011;4065;48.754;9.982;2022-09-09T14:35:05;2.00;;;0.90;;
8044;SDS011;4065;48.754;9.982;2022-09-09T14:38:08;3.03;;;1.20;;
8044;SDS011;4065;48.754;9.982;2022-09-09T14:41:10;1.60;;;0.98;;
8044;SDS011;4065;48.754;9.982;2022-09-09T14:44:12;2.33;;;1.10;;
8044;SDS011;4065;48.754;9.982;2022-09-09T14:47:16;2.05;;;1.10;;
8044;SDS011;4065;48.754;9.982;2022-09-09T14:50:19;3.03;;;1.30;;
8044;SDS011;4065;48.754;9.982;2022-09-09T14:53:21;3.88;;;1.25;;
8044;SDS011;4065;48.754;9.982;2022-09-09T14:56:23;4.90;;;1.23;;
8044;SDS011;4065;48.754;9.982;2022-09-09T14:59:26;3.83;;;1.20;;
8044;SDS011;4065;48.754;9.982;2022-09-09T15:02:27;3.22;;;1.17;;
8044;SDS011;4065;48.754;9.982;2022-09-09T15:05:31;2.45;;;1.20;;
8044;SDS011;4065;48.754;9.982;2022-09-09T15:08:33;1.52;;;1.30;;
8044;SDS011;4065;48.754;9.982;2022-09-09T15:11:37;2.28;;;1.17;;
8044;SDS011;4065;48.754;9.982;2022-09-09T15:14:40;2.95;;;1.27;;
8044;SDS011;4065;48.754;9.982;2022-09-09T15:17:41;2.75;;;1.00;;
8044;SDS011;4065;48.754;9.982;2022-09-09T15:20:52;2.78;;;1.25;;
8044;SDS011;4065;48.754;9.982;2022-09-09T15:23:58;1.98;;;1.13;;
8044;SDS011;4065;48.754;9.982;2022-09-09T15:27:04;2.95;;;0.95;;
8044;SDS011;4065;48.754;9.982;2022-09-09T15:30:10;2.28;;;1.10;;
8044;SDS011;4065;48.754;9.982;2022-09-09T15:33:12;2.20;;;1.20;;
8044;SDS011;4065;48.754;9.982;2022-09-09T15:36:18;2.40;;;1.10;;
8044;SDS011;4065;48.754;9.982;2022-09-09T15:39:45;2.40;;;1.10;;
8044;SDS011;4065;48.754;9.982;2022-09-09T15:42:48;2.40;;;1.15;;
8044;SDS011;4065;48.754;9.982;2022-09-09T15:45:53;2.45;;;1.20;;
8044;SDS011;4065;48.754;9.982;2022-09-09T15:49:04;2.67;;;1.30;;
8044;SDS011;4065;48.754;9.982;2022-09-09T15:52:11;3.30;;;1.10;;
8044;SDS011;4065;48.754;9.982;2022-09-09T15:55:13;1.60;;;1.00;;
8044;SDS011;4065;48.754;9.982;2022-09-09T15:58:21;4.03;;;1.25;;
8044;SDS011;4065;48.754;9.982;2022-09-09T16:01:23;3.70;;;1.40;;
8044;SDS011;4065;48.754;9.982;2022-09-09T16:04:26;4.22;;;1.40;;
8044;SDS011;4065;48.754;9.982;2022-09-09T16:07:30;3.70;;;1.20;;
8044;SDS011;4065;48.754;9.982;2022-09-09T16:10:36;2.42;;;1.05;;
8044;SDS011;4065;48.754;9.982;2022-09-09T16:13:38;3.30;;;1.25;;
8044;SDS011;4065;48.754;9.982;2022-09-09T16:16:41;1.90;;;1.20;;
8044;SDS011;4065;48.754;9.982;2022-09-09T16:19:43;2.08;;;1.00;;
8044;SDS011;4065;48.754;9.982;2022-09-09T16:22:47;2.95;;;1.20;;
8044;SDS011;4065;48.754;9.982;2022-09-09T16:25:52;2.33;;;1.20;;
8044;SDS011;4065;48.754;9.982;2022-09-09T16:28:57;2.75;;;1.30;;
8044;SDS011;4065;48.754;9.982;2022-09-09T16:31:59;1.45;;;1.02;;
8044;SDS011;4065;48.754;9.982;2022-09-09T16:35:01;3.75;;;1.40;;
8044;SDS011;4065;48.754;9.982;2022-09-09T16:38:05;2.67;;;1.20;;
8044;SDS011;4065;48.754;9.982;2022-09-09T16:41:08;5.82;;;1.25;;
8044;SDS011;4065;48.754;9.982;2022-09-09T16:44:11;3.00;;;1.40;;
8044;SDS011;4065;48.754;9.982;2022-09-09T16:47:18;2.33;;;1.10;;
8044;SDS011;4065;48.754;9.982;2022-09-09T16:50:21;3.55;;;1.33;;
8044;SDS011;4065;48.754;9.982;2022-09-09T16:53:24;2.38;;;1.40;;
8044;SDS011;4065;48.754;9.982;2022-09-09T16:56:29;3.33;;;1.48;;
8044;SDS011;4065;48.754;9.982;2022-09-09T16:59:33;2.80;;;1.30;;
8044;SDS011;4065;48.754;9.982;2022-09-09T17:02:34;2.08;;;1.30;;
8044;SDS011;4065;48.754;9.982;2022-09-09T17:05:39;2.35;;;1.40;;
8044;SDS011;4065;48.754;9.982;2022-09-09T17:08:45;5.70;;;1.77;;
8044;SDS011;4065;48.754;9.982;2022-09-09T17:11:48;2.80;;;1.50;;
8044;SDS011;4065;48.754;9.982;2022-09-09T17:14:55;3.83;;;1.40;;
8044;SDS011;4065;48.754;9.982;2022-09-09T17:17:56;3.00;;;1.75;;
8044;SDS011;4065;48.754;9.982;2022-09-09T17:21:01;2.45;;;1.50;;
8044;SDS011;4065;48.754;9.982;2022-09-09T17:24:05;3.28;;;1.58;;
8044;SDS011;4065;48.754;9.982;2022-09-09T17:27:08;3.83;;;1.30;;
8044;SDS011;4065;48.754;9.982;2022-09-09T17:30:11;3.53;;;1.27;;
8044;SDS011;4065;48.754;9.982;2022-09-09T17:33:13;2.08;;;1.20;;
8044;SDS011;4065;48.754;9.982;2022-09-09T17:36:16;3.38;;;1.50;;
8044;SDS011;4065;48.754;9.982;2022-09-09T17:39:20;5.47;;;1.50;;
8044;SDS011;4065;48.754;9.982;2022-09-09T17:42:23;2.42;;;1.30;;
8044;SDS011;4065;48.754;9.982;2022-09-09T17:45:25;2.92;;;1.40;;
8044;SDS011;4065;48.754;9.982;2022-09-09T17:48:30;1.95;;;1.35;;
8044;SDS011;4065;48.754;9.982;2022-09-09T17:51:32;3.22;;;1.40;;
8044;SDS011;4065;48.754;9.982;2022-09-09T17:54:36;4.20;;;1.50;;
8044;SDS011;4065;48.754;9.982;2022-09-09T17:57:40;3.22;;;1.55;;
8044;SDS011;4065;48.754;9.982;2022-09-09T18:00:42;5.75;;;1.83;;
8044;SDS011;4065;48.754;9.982;2022-09-09T18:03:47;1.90;;;1.33;;
8044;SDS011;4065;48.754;9.982;2022-09-09T18:06:52;2.10;;;1.30;;
8044;SDS011;4065;48.754;9.982;2022-09-09T18:09:56;4.55;;;1.60;;
8044;SDS011;4065;48.754;9.982;2022-09-09T18:12:57;3.53;;;1.65;;
8044;SDS011;4065;48.754;9.982;2022-09-09T18:16:01;4.20;;;1.40;;
8044;SDS011;4065;48.754;9.982;2022-09-09T18:19:08;7.57;;;1.77;;
8044;SDS011;4065;48.754;9.982;2022-09-09T18:22:12;2.50;;;1.40;;
8044;SDS011;4065;48.754;9.982;2022-09-09T18:25:15;2.60;;;1.33;;
8044;SDS011;4065;48.754;9.982;2022-09-09T18:28:17;1.83;;;1.30;;
8044;SDS011;4065;48.754;9.982;2022-09-09T18:31:20;3.83;;;1.30;;
8044;SDS011;4065;48.754;9.982;2022-09-09T18:34:27;4.88;;;1.40;;
8044;SDS011;4065;48.754;9.982;2022-09-09T18:37:31;5.30;;;1.33;;
8044;SDS011;4065;48.754;9.982;2022-09-09T18:40:36;2.17;;;1.30;;
8044;SDS011;4065;48.754;9.982;2022-09-09T18:43:43;2.45;;;1.70;;
8044;SDS011;4065;48.754;9.982;2022-09-09T18:46:45;3.92;;;1.60;;
8044;SDS011;4065;48.754;9.982;2022-09-09T18:49:48;1.88;;;1.40;;
8044;SDS011;4065;48.754;9.982;2022-09-09T18:52:49;2.03;;;1.20;;
8044;SDS011;4065;48.754;9.982;2022-09-09T18:55:57;2.03;;;1.30;;
8044;SDS011;4065;48.754;9.982;2022-09-09T18:59:03;2.08;;;1.30;;
8044;SDS011;4065;48.754;9.982;2022-09-09T19:02:06;2.58;;;1.38;;
8044;SDS011;4065;48.754;9.982;2022-09-09T19:05:10;2.20;;;1.40;;
8044;SDS011;4065;48.754;9.982;2022-09-09T19:08:12;2.53;;;1.50;;
8044;SDS011;4065;48.754;9.982;2022-09-09T19:11:16;1.95;;;1.30;;
8044;SDS011;4065;48.754;9.982;2022-09-09T19:14:18;2.38;;;1.60;;
8044;SDS011;4065;48.754;9.982;2022-09-09T19:17:20;5.85;;;4.72;;